sensor_id;sensor_type;location;lat;lon;timestamp;P1;durP1;ratioP1;P2;durP2;ratioP2
24147;SDS011;12309;51.450;-2.624;2022-08-25T00:00:46;7.32;;;3.00;;
24147;SDS011;12309;51.450;-2.624;2022-08-25T00:03:13;5.85;;;2.92;;
24147;SDS011;12309;51.450;-2.624;2022-08-25T00:05:40;12.50;;;3.05;;
24147;SDS011;12309;51.450;-2.624;2022-08-25T00:08:06;7.30;;;2.88;;
24147;SDS011;12309;51.450;-2.624;2022-08-25T00:10:34;7.55;;;3.00;;
24147;SDS011;12309;51.450;-2.624;2022-08-25T00:13:02;5.53;;;2.90;;
24147;SDS011;12309;51.450;-2.624;2022-08-25T00:15:29;8.10;;;2.85;;
24147;SDS011;12309;51.450;-2.624;2022-08-25T00:17:56;8.85;;;3.03;;
24147;SDS011;12309;51.450;-2.624;2022-08-25T00:20:22;7.60;;;3.17;;
24147;SDS011;12309;51.450;-2.624;2022-08-25T00:22:49;6.10;;;2.67;;
24147;SDS011;12309;51.450;-2.624;2022-08-25T00:25:15;7.78;;;2.55;;
24147;SDS011;12309;51.450;-2.624;2022-08-25T00:27:42;7.93;;;3.22;;
24147;SDS011;12309;51.450;-2.624;2022-08-25T00:30:08;6.85;;;2.70;;
24147;SDS011;12309;51.450;-2.624;2022-08-25T00:32:35;7.60;;;2.78;;
24147;SDS011;12309;51.450;-2.624;2022-08-25T00:35:01;10.60;;;2.83;;
24147;SDS011;12309;51.450;-2.624;2022-08-25T00:37:28;4.70;;;2.70;;
24147;SDS011;12309;51.450;-2.624;2022-08-25T00:39:53;8.02;;;2.40;;
24147;SDS011;12309;51.450;-2.624;2022-08-25T00:42:21;9.43;;;2.70;;
24147;SDS011;12309;51.450;-2.624;2022-08-25T00:44:47;9.95;;;2.72;;
24147;SDS011;12309;51.450;-2.624;2022-08-25T00:47:14;7.40;;;2.70;;
24147;SDS011;12309;51.450;-2.624;2022-08-25T00:49:53;10.35;;;2.67;;
24147;SDS011;12309;51.450;-2.624;2022-08-25T00:52:23;10.95;;;3.17;;
24147;SDS011;12309;51.450;-2.624;2022-08-25T00:55:06;9.63;;;3.53;;
24147;SDS011;12309;51.450;-2.624;2022-08-25T00:57:39;8.40;;;3.03;;
24147;SDS011;12309;51.450;-2.624;2022-08-25T01:00:19;9.40;;;3.00;;
24147;SDS011;12309;51.450;-2.624;2022-08-25T01:02:48;6.25;;;2.85;;
24147;SDS011;12309;51.450;-2.624;2022-08-25T01:05:14;7.60;;;3.15;;
24147;SDS011;12309;51.450;-2.624;2022-08-25T01:07:42;8.82;;;2.85;;
24147;SDS011;12309;51.450;-2.624;2022-08-25T01:10:08;7.18;;;3.00;;
24147;SDS011;12309;51.450;-2.624;2022-08-25T01:12:36;7.70;;;2.80;;
24147;SDS011;12309;51.450;-2.624;2022-08-25T01:15:05;10.57;;;2.92;;
24147;SDS011;12309;51.450;-2.624;2022-08-25T01:17:34;7.35;;;2.90;;
24147;SDS011;12309;51.450;-2.624;2022-08-25T01:20:08;7.65;;;3.40;;
24147;SDS011;12309;51.450;-2.624;2022-08-25T01:22:34;12.82;;;3.53;;
24147;SDS011;12309;51.450;-2.624;2022-08-25T01:25:03;7.50;;;2.90;;
24147;SDS011;12309;51.450;-2.624;2022-08-25T01:27:37;8.05;;;2.97;;
24147;SDS011;12309;51.450;-2.624;2022-08-25T01:30:03;8.95;;;3.65;;
24147;SDS011;12309;51.450;-2.624;2022-08-25T01:32:31;9.90;;;3.63;;
24147;SDS011;12309;51.450;-2.624;2022-08-25T01:34:58;6.72;;;3.25;;
24147;SDS011;12309;51.450;-2.624;2022-08-25T01:37:24;8.27;;;3.47;;
24147;SDS011;12309;51.450;-2.624;2022-08-25T01:39:50;9.27;;;3.13;;
24147;SDS011;12309;51.450;-2.624;2022-08-25T01:42:23;9.20;;;4.28;;
24147;SDS011;12309;51.450;-2.624;2022-08-25T01:45:10;8.05;;;3.97;;
24147;SDS011;12309;51.450;-2.624;2022-08-25T01:47:36;7.90;;;4.13;;
24147;SDS011;12309;51.450;-2.624;2022-08-25T01:50:03;11.15;;;4.53;;
24147;SDS011;12309;51.450;-2.624;2022-08-25T01:52:36;6.22;;;3.70;;
24147;SDS011;12309;51.450;-2.624;2022-08-25T01:55:10;5.97;;;3.63;;
24147;SDS011;12309;51.450;-2.624;2022-08-25T01:57:36;5.28;;;3.90;;
24147;SDS011;12309;51.450;-2.624;2022-08-25T02:00:04;5.70;;;3.75;;
24147;SDS011;12309;51.450;-2.624;2022-08-25T02:02:32;9.88;;;4.00;;
24147;SDS011;12309;51.450;-2.624;2022-08-25T02:04:57;8.65;;;4.03;;
24147;SDS011;12309;51.450;-2.624;2022-08-25T02:07:23;8.82;;;3.70;;
24147;SDS011;12309;51.450;-2.624;2022-08-25T02:09:48;9.90;;;4.38;;
24147;SDS011;12309;51.450;-2.624;2022-08-25T02:12:14;8.10;;;3.75;;
24147;SDS011;12309;51.450;-2.624;2022-08-25T02:14:40;9.98;;;3.97;;
24147;SDS011;12309;51.450;-2.624;2022-08-25T02:17:05;8.32;;;3.60;;
24147;SDS011;12309;51.450;-2.624;2022-08-25T02:19:31;7.07;;;3.85;;
24147;SDS011;12309;51.450;-2.624;2022-08-25T02:21:58;7.45;;;3.63;;
24147;SDS011;12309;51.450;-2.624;2022-08-25T02:24:23;7.88;;;3.58;;
24147;SDS011;12309;51.450;-2.624;2022-08-25T02:26:50;7.90;;;3.28;;
24147;SDS011;12309;51.450;-2.624;2022-08-25T02:29:16;8.32;;;3.05;;
24147;SDS011;12309;51.450;-2.624;2022-08-25T02:31:42;5.80;;;3.10;;
24147;SDS011;12309;51.450;-2.624;2022-08-25T02:34:09;4.88;;;2.33;;
24147;SDS011;12309;51.450;-2.624;2022-08-25T02:36:35;4.90;;;2.10;;
24147;SDS011;12309;51.450;-2.624;2022-08-25T02:39:03;3.08;;;2.00;;
24147;SDS011;12309;51.450;-2.624;2022-08-25T02:41:30;4.70;;;1.80;;
24147;SDS011;12309;51.450;-2.624;2022-08-25T02:43:58;3.28;;;2.30;;
24147;SDS011;12309;51.450;-2.624;2022-08-25T02:46:24;6.13;;;2.08;;
24147;SDS011;12309;51.450;-2.624;2022-08-25T02:48:51;3.63;;;2.38;;
24147;SDS011;12309;51.450;-2.624;2022-08-25T02:51:17;3.15;;;2.53;;
24147;SDS011;12309;51.450;-2.624;2022-08-25T02:53:44;4.15;;;2.47;;
24147;SDS011;12309;51.450;-2.624;2022-08-25T02:56:11;6.30;;;2.65;;
24147;SDS011;12309;51.450;-2.624;2022-08-25T02:58:38;7.60;;;2.63;;
24147;SDS011;12309;51.450;-2.624;2022-08-25T03:01:06;4.70;;;2.78;;
24147;SDS011;12309;51.450;-2.624;2022-08-25T03:03:35;3.53;;;2.95;;
24147;SDS011;12309;51.450;-2.624;2022-08-25T03:06:04;7.05;;;2.97;;
24147;SDS011;12309;51.450;-2.624;2022-08-25T03:08:35;4.35;;;2.90;;
24147;SDS011;12309;51.450;-2.624;2022-08-25T03:11:01;4.97;;;2.75;;
24147;SDS011;12309;51.450;-2.624;2022-08-25T03:13:27;4.25;;;2.72;;
24147;SDS011;12309;51.450;-2.624;2022-08-25T03:15:53;4.53;;;2.60;;
24147;SDS011;12309;51.450;-2.624;2022-08-25T03:18:19;5.40;;;3.13;;
24147;SDS011;12309;51.450;-2.624;2022-08-25T03:20:47;5.05;;;3.10;;
24147;SDS011;12309;51.450;-2.624;2022-08-25T03:23:12;3.50;;;2.70;;
24147;SDS011;12309;51.450;-2.624;2022-08-25T03:25:39;5.18;;;2.88;;
24147;SDS011;12309;51.450;-2.624;2022-08-25T03:28:23;2.90;;;2.53;;
24147;SDS011;12309;51.450;-2.624;2022-08-25T03:30:50;6.55;;;2.97;;
24147;SDS011;12309;51.450;-2.624;2022-08-25T03:33:17;3.88;;;2.75;;
24147;SDS011;12309;51.450;-2.624;2022-08-25T03:35:43;3.55;;;2.40;;
24147;SDS011;12309;51.450;-2.624;2022-08-25T03:38:09;5.53;;;2.97;;
24147;SDS011;12309;51.450;-2.624;2022-08-25T03:40:35;4.70;;;2.78;;
24147;SDS011;12309;51.450;-2.624;2022-08-25T03:43:02;4.00;;;2.50;;
24147;SDS011;12309;51.450;-2.624;2022-08-25T03:45:28;3.97;;;2.20;;
24147;SDS011;12309;51.450;-2.624;2022-08-25T03:47:53;3.47;;;2.33;;
24147;SDS011;12309;51.450;-2.624;2022-08-25T03:50:20;4.90;;;2.17;;
24147;SDS011;12309;51.450;-2.624;2022-08-25T03:52:52;3.55;;;2.28;;
24147;SDS011;12309;51.450;-2.624;2022-08-25T03:55:19;2.72;;;1.98;;
24147;SDS011;12309;51.450;-2.624;2022-08-25T03:57:47;2.45;;;2.17;;
24147;SDS011;12309;51.450;-2.624;2022-08-25T04:00:12;2.47;;;1.80;;
24147;SDS011;12309;51.450;-2.624;2022-08-25T04:02:39;1.95;;;1.52;;
24147;SDS011;12309;51.450;-2.624;2022-08-25T04:05:05;3.35;;;1.30;;
24147;SDS011;12309;51.450;-2.624;2022-08-25T04:07:32;3.78;;;1.27;;
24147;SDS011;12309;51.450;-2.624;2022-08-25T04:09:57;5.03;;;1.55;;
24147;SDS011;12309;51.450;-2.624;2022-08-25T04:12:23;1.30;;;1.20;;
24147;SDS011;12309;51.450;-2.624;2022-08-25T04:14:49;3.60;;;1.33;;
24147;SDS011;12309;51.450;-2.624;2022-08-25T04:17:15;3.33;;;1.42;;
24147;SDS011;12309;51.450;-2.624;2022-08-25T04:19:41;2.22;;;1.08;;
24147;SDS011;12309;51.450;-2.624;2022-08-25T04:22:07;3.10;;;1.30;;
24147;SDS011;12309;51.450;-2.624;2022-08-25T04:24:32;5.40;;;1.30;;
24147;SDS011;12309;51.450;-2.624;2022-08-25T04:26:58;1.80;;;1.27;;
24147;SDS011;12309;51.450;-2.624;2022-08-25T04:29:24;1.13;;;1.02;;
24147;SDS011;12309;51.450;-2.624;2022-08-25T04:31:51;2.65;;;1.20;;
24147;SDS011;12309;51.450;-2.624;2022-08-25T04:34:19;2.55;;;1.25;;
24147;SDS011;12309;51.450;-2.624;2022-08-25T04:36:46;1.27;;;1.17;;
24147;SDS011;12309;51.450;-2.624;2022-08-25T04:39:14;2.03;;;1.20;;
24147;SDS011;12309;51.450;-2.624;2022-08-25T04:41:40;3.28;;;1.10;;
24147;SDS011;12309;51.450;-2.624;2022-08-25T04:44:06;1.40;;;0.95;;
24147;SDS011;12309;51.450;-2.624;2022-08-25T04:46:32;1.80;;;1.20;;
24147;SDS011;12309;51.450;-2.624;2022-08-25T04:48:59;4.90;;;1.20;;
24147;SDS011;12309;51.450;-2.624;2022-08-25T04:51:27;1.10;;;1.00;;
24147;SDS011;12309;51.450;-2.624;2022-08-25T04:53:59;2.03;;;1.05;;
24147;SDS011;12309;51.450;-2.624;2022-08-25T04:56:26;2.00;;;1.30;;
24147;SDS011;12309;51.450;-2.624;2022-08-25T04:58:53;3.33;;;1.20;;
24147;SDS011;12309;51.450;-2.624;2022-08-25T05:01:21;2.10;;;1.10;;
24147;SDS011;12309;51.450;-2.624;2022-08-25T05:03:53;2.10;;;1.30;;
24147;SDS011;12309;51.450;-2.624;2022-08-25T05:06:21;2.67;;;1.10;;
24147;SDS011;12309;51.450;-2.624;2022-08-25T05:08:47;1.90;;;1.23;;
24147;SDS011;12309;51.450;-2.624;2022-08-25T05:11:14;6.07;;;1.35;;
24147;SDS011;12309;51.450;-2.624;2022-08-25T05:13:42;4.15;;;1.10;;
24147;SDS011;12309;51.450;-2.624;2022-08-25T05:16:09;4.35;;;1.30;;
24147;SDS011;12309;51.450;-2.624;2022-08-25T05:18:35;4.80;;;1.30;;
24147;SDS011;12309;51.450;-2.624;2022-08-25T05:21:02;2.17;;;1.30;;
24147;SDS011;12309;51.450;-2.624;2022-08-25T05:23:29;3.40;;;1.33;;
24147;SDS011;12309;51.450;-2.624;2022-08-25T05:25:59;1.58;;;1.30;;
24147;SDS011;12309;51.450;-2.624;2022-08-25T05:28:27;1.85;;;1.00;;
24147;SDS011;12309;51.450;-2.624;2022-08-25T05:30:56;1.30;;;0.93;;
24147;SDS011;12309;51.450;-2.624;2022-08-25T05:33:23;2.17;;;1.08;;
24147;SDS011;12309;51.450;-2.624;2022-08-25T05:35:49;3.00;;;0.93;;
24147;SDS011;12309;51.450;-2.624;2022-08-25T05:38:15;1.35;;;1.00;;
24147;SDS011;12309;51.450;-2.624;2022-08-25T05:40:41;1.67;;;1.15;;
24147;SDS011;12309;51.450;-2.624;2022-08-25T05:43:06;1.95;;;1.20;;
24147;SDS011;12309;51.450;-2.624;2022-08-25T05:45:32;3.90;;;1.45;;
24147;SDS011;12309;51.450;-2.624;2022-08-25T05:47:59;1.70;;;1.23;;
24147;SDS011;12309;51.450;-2.624;2022-08-25T05:50:25;3.83;;;1.10;;
24147;SDS011;12309;51.450;-2.624;2022-08-25T05:52:51;1.15;;;1.02;;
24147;SDS011;12309;51.450;-2.624;2022-08-25T05:55:17;4.70;;;1.30;;
24147;SDS011;12309;51.450;-2.624;2022-08-25T05:57:42;2.92;;;1.27;;
24147;SDS011;12309;51.450;-2.624;2022-08-25T06:00:08;1.50;;;0.80;;
24147;SDS011;12309;51.450;-2.624;2022-08-25T06:02:36;1.75;;;1.30;;
24147;SDS011;12309;51.450;-2.624;2022-08-25T06:05:06;1.92;;;1.30;;
24147;SDS011;12309;51.450;-2.624;2022-08-25T06:07:32;2.38;;;1.27;;
24147;SDS011;12309;51.450;-2.624;2022-08-25T06:10:00;1.92;;;1.17;;
24147;SDS011;12309;51.450;-2.624;2022-08-25T06:12:31;3.72;;;1.60;;
24147;SDS011;12309;51.450;-2.624;2022-08-25T06:15:00;3.40;;;1.40;;
24147;SDS011;12309;51.450;-2.624;2022-08-25T06:17:26;4.47;;;1.30;;
24147;SDS011;12309;51.450;-2.624;2022-08-25T06:19:52;2.70;;;1.40;;
24147;SDS011;12309;51.450;-2.624;2022-08-25T06:22:19;1.73;;;1.23;;
24147;SDS011;12309;51.450;-2.624;2022-08-25T06:24:45;6.78;;;1.35;;
24147;SDS011;12309;51.450;-2.624;2022-08-25T06:27:11;4.18;;;1.33;;
24147;SDS011;12309;51.450;-2.624;2022-08-25T06:29:37;2.42;;;1.30;;
24147;SDS011;12309;51.450;-2.624;2022-08-25T06:32:02;1.85;;;1.35;;
24147;SDS011;12309;51.450;-2.624;2022-08-25T06:34:28;3.05;;;1.40;;
24147;SDS011;12309;51.450;-2.624;2022-08-25T06:36:54;3.25;;;1.67;;
24147;SDS011;12309;51.450;-2.624;2022-08-25T06:39:20;2.83;;;1.67;;
24147;SDS011;12309;51.450;-2.624;2022-08-25T06:41:49;6.00;;;1.50;;
24147;SDS011;12309;51.450;-2.624;2022-08-25T06:44:16;3.83;;;1.45;;
24147;SDS011;12309;51.450;-2.624;2022-08-25T06:46:42;4.72;;;1.60;;
24147;SDS011;12309;51.450;-2.624;2022-08-25T06:49:08;4.88;;;1.63;;
24147;SDS011;12309;51.450;-2.624;2022-08-25T06:51:34;2.33;;;1.80;;
24147;SDS011;12309;51.450;-2.624;2022-08-25T06:54:00;2.85;;;1.73;;
24147;SDS011;12309;51.450;-2.624;2022-08-25T06:56:26;4.63;;;2.00;;
24147;SDS011;12309;51.450;-2.624;2022-08-25T06:58:52;3.38;;;1.52;;
24147;SDS011;12309;51.450;-2.624;2022-08-25T07:01:19;4.72;;;1.55;;
24147;SDS011;12309;51.450;-2.624;2022-08-25T07:03:50;3.63;;;1.90;;
24147;SDS011;12309;51.450;-2.624;2022-08-25T07:06:19;7.57;;;1.90;;
24147;SDS011;12309;51.450;-2.624;2022-08-25T07:08:45;2.25;;;1.60;;
24147;SDS011;12309;51.450;-2.624;2022-08-25T07:11:12;3.33;;;1.83;;
24147;SDS011;12309;51.450;-2.624;2022-08-25T07:13:38;2.38;;;1.73;;
24147;SDS011;12309;51.450;-2.624;2022-08-25T07:16:05;3.78;;;2.00;;
24147;SDS011;12309;51.450;-2.624;2022-08-25T07:18:31;4.40;;;1.88;;
24147;SDS011;12309;51.450;-2.624;2022-08-25T07:20:57;5.55;;;1.90;;
24147;SDS011;12309;51.450;-2.624;2022-08-25T07:23:23;5.53;;;1.85;;
24147;SDS011;12309;51.450;-2.624;2022-08-25T07:25:49;3.20;;;1.95;;
24147;SDS011;12309;51.450;-2.624;2022-08-25T07:28:16;4.72;;;1.95;;
24147;SDS011;12309;51.450;-2.624;2022-08-25T07:30:42;4.60;;;2.13;;
24147;SDS011;12309;51.450;-2.624;2022-08-25T07:33:08;4.45;;;2.17;;
24147;SDS011;12309;51.450;-2.624;2022-08-25T07:35:34;5.95;;;2.20;;
24147;SDS011;12309;51.450;-2.624;2022-08-25T07:38:01;3.80;;;1.67;;
24147;SDS011;12309;51.450;-2.624;2022-08-25T07:40:36;5.90;;;2.20;;
24147;SDS011;12309;51.450;-2.624;2022-08-25T07:43:04;4.78;;;1.80;;
24147;SDS011;12309;51.450;-2.624;2022-08-25T07:45:33;4.43;;;1.80;;
24147;SDS011;12309;51.450;-2.624;2022-08-25T07:48:02;4.70;;;2.03;;
24147;SDS011;12309;51.450;-2.624;2022-08-25T07:50:30;3.00;;;2.13;;
24147;SDS011;12309;51.450;-2.624;2022-08-25T07:52:58;3.83;;;2.00;;
24147;SDS011;12309;51.450;-2.624;2022-08-25T07:55:25;4.90;;;2.10;;
24147;SDS011;12309;51.450;-2.624;2022-08-25T07:57:52;4.50;;;2.00;;
24147;SDS011;12309;51.450;-2.624;2022-08-25T08:00:19;2.67;;;1.85;;
24147;SDS011;12309;51.450;-2.624;2022-08-25T08:02:45;2.58;;;2.00;;
24147;SDS011;12309;51.450;-2.624;2022-08-25T08:05:12;6.40;;;2.28;;
24147;SDS011;12309;51.450;-2.624;2022-08-25T08:07:38;3.88;;;1.65;;
24147;SDS011;12309;51.450;-2.624;2022-08-25T08:10:05;3.97;;;1.98;;
24147;SDS011;12309;51.450;-2.624;2022-08-25T08:12:33;2.92;;;2.00;;
24147;SDS011;12309;51.450;-2.624;2022-08-25T08:15:00;2.75;;;1.80;;
24147;SDS011;12309;51.450;-2.624;2022-08-25T08:17:26;5.22;;;1.88;;
24147;SDS011;12309;51.450;-2.624;2022-08-25T08:19:52;5.75;;;1.80;;
24147;SDS011;12309;51.450;-2.624;2022-08-25T08:22:18;4.07;;;1.88;;
24147;SDS011;12309;51.450;-2.624;2022-08-25T08:24:44;3.05;;;1.52;;
24147;SDS011;12309;51.450;-2.624;2022-08-25T08:27:11;3.47;;;1.50;;
24147;SDS011;12309;51.450;-2.624;2022-08-25T08:29:38;2.58;;;1.70;;
24147;SDS011;12309;51.450;-2.624;2022-08-25T08:32:06;7.60;;;1.95;;
24147;SDS011;12309;51.450;-2.624;2022-08-25T08:34:33;4.03;;;1.90;;
24147;SDS011;12309;51.450;-2.624;2022-08-25T08:37:00;3.70;;;1.52;;
24147;SDS011;12309;51.450;-2.624;2022-08-25T08:39:26;6.05;;;1.70;;
24147;SDS011;12309;51.450;-2.624;2022-08-25T08:50:20;3.13;;;1.45;;
24147;SDS011;12309;51.450;-2.624;2022-08-25T08:52:55;2.85;;;1.98;;
24147;SDS011;12309;51.450;-2.624;2022-08-25T08:55:27;3.65;;;1.60;;
24147;SDS011;12309;51.450;-2.624;2022-08-25T08:58:18;5.78;;;1.70;;
24147;SDS011;12309;51.450;-2.624;2022-08-25T09:00:48;4.03;;;1.80;;
24147;SDS011;12309;51.450;-2.624;2022-08-25T09:06:10;5.03;;;1.80;;
24147;SDS011;12309;51.450;-2.624;2022-08-25T09:08:38;5.90;;;1.45;;
24147;SDS011;12309;51.450;-2.624;2022-08-25T09:16:12;2.40;;;1.60;;
24147;SDS011;12309;51.450;-2.624;2022-08-25T09:19:08;3.83;;;1.75;;
24147;SDS011;12309;51.450;-2.624;2022-08-25T09:24:47;4.03;;;2.15;;
24147;SDS011;12309;51.450;-2.624;2022-08-25T09:30:06;6.15;;;1.70;;
24147;SDS011;12309;51.450;-2.624;2022-08-25T09:32:55;3.60;;;1.90;;
24147;SDS011;12309;51.450;-2.624;2022-08-25T09:35:32;4.30;;;1.50;;
24147;SDS011;12309;51.450;-2.624;2022-08-25T09:38:05;4.38;;;1.83;;
24147;SDS011;12309;51.450;-2.624;2022-08-25T09:40:37;4.95;;;2.75;;
24147;SDS011;12309;51.450;-2.624;2022-08-25T09:43:18;4.53;;;2.40;;
24147;SDS011;12309;51.450;-2.624;2022-08-25T09:51:11;3.92;;;2.90;;
24147;SDS011;12309;51.450;-2.624;2022-08-25T09:53:42;7.03;;;3.30;;
24147;SDS011;12309;51.450;-2.624;2022-08-25T09:56:14;11.93;;;3.55;;
24147;SDS011;12309;51.450;-2.624;2022-08-25T09:58:45;6.90;;;3.60;;
24147;SDS011;12309;51.450;-2.624;2022-08-25T10:01:16;5.93;;;3.28;;
24147;SDS011;12309;51.450;-2.624;2022-08-25T10:06:32;3.80;;;2.78;;
24147;SDS011;12309;51.450;-2.624;2022-08-25T10:09:08;5.43;;;2.78;;
24147;SDS011;12309;51.450;-2.624;2022-08-25T10:11:47;6.07;;;2.00;;
24147;SDS011;12309;51.450;-2.624;2022-08-25T10:14:17;4.03;;;1.70;;
24147;SDS011;12309;51.450;-2.624;2022-08-25T10:17:10;3.03;;;1.60;;
24147;SDS011;12309;51.450;-2.624;2022-08-25T10:19:41;5.03;;;2.10;;
24147;SDS011;12309;51.450;-2.624;2022-08-25T10:22:11;3.20;;;1.77;;
24147;SDS011;12309;51.450;-2.624;2022-08-25T10:24:51;8.13;;;1.42;;
24147;SDS011;12309;51.450;-2.624;2022-08-25T10:30:27;5.03;;;1.70;;
24147;SDS011;12309;51.450;-2.624;2022-08-25T10:43:55;4.45;;;1.48;;
24147;SDS011;12309;51.450;-2.624;2022-08-25T10:46:33;4.82;;;1.85;;
24147;SDS011;12309;51.450;-2.624;2022-08-25T10:49:18;4.30;;;2.00;;
24147;SDS011;12309;51.450;-2.624;2022-08-25T10:51:53;4.13;;;2.15;;
24147;SDS011;12309;51.450;-2.624;2022-08-25T10:54:41;5.65;;;2.20;;
24147;SDS011;12309;51.450;-2.624;2022-08-25T11:00:06;2.28;;;1.80;;
24147;SDS011;12309;51.450;-2.624;2022-08-25T11:08:05;2.75;;;2.17;;
24147;SDS011;12309;51.450;-2.624;2022-08-25T11:10:51;3.08;;;1.88;;
24147;SDS011;12309;51.450;-2.624;2022-08-25T11:13:26;4.80;;;1.80;;
24147;SDS011;12309;51.450;-2.624;2022-08-25T11:16:09;4.22;;;1.83;;
24147;SDS011;12309;51.450;-2.624;2022-08-25T11:18:50;3.63;;;2.00;;
24147;SDS011;12309;51.450;-2.624;2022-08-25T11:21:30;4.05;;;2.13;;
24147;SDS011;12309;51.450;-2.624;2022-08-25T11:26:48;4.90;;;1.75;;
24147;SDS011;12309;51.450;-2.624;2022-08-25T11:29:18;3.92;;;1.80;;
24147;SDS011;12309;51.450;-2.624;2022-08-25T11:31:46;2.47;;;1.75;;
24147;SDS011;12309;51.450;-2.624;2022-08-25T11:34:15;2.40;;;1.80;;
24147;SDS011;12309;51.450;-2.624;2022-08-25T11:36:48;5.78;;;2.28;;
24147;SDS011;12309;51.450;-2.624;2022-08-25T11:50:55;2.15;;;1.90;;
24147;SDS011;12309;51.450;-2.624;2022-08-25T11:55:53;4.20;;;2.35;;
24147;SDS011;12309;51.450;-2.624;2022-08-25T12:00:58;3.75;;;2.15;;
24147;SDS011;12309;51.450;-2.624;2022-08-25T12:19:29;5.15;;;2.42;;
24147;SDS011;12309;51.450;-2.624;2022-08-25T12:29:44;4.20;;;2.25;;
24147;SDS011;12309;51.450;-2.624;2022-08-25T12:37:12;4.30;;;2.00;;
24147;SDS011;12309;51.450;-2.624;2022-08-25T12:47:49;4.15;;;2.45;;
24147;SDS011;12309;51.450;-2.624;2022-08-25T12:50:26;4.40;;;2.47;;
24147;SDS011;12309;51.450;-2.624;2022-08-25T12:52:52;6.05;;;2.80;;
24147;SDS011;12309;51.450;-2.624;2022-08-25T12:55:20;5.07;;;2.53;;
24147;SDS011;12309;51.450;-2.624;2022-08-25T12:57:51;3.88;;;2.67;;
24147;SDS011;12309;51.450;-2.624;2022-08-25T13:00:24;3.70;;;2.70;;
24147;SDS011;12309;51.450;-2.624;2022-08-25T13:14:25;6.40;;;2.88;;
24147;SDS011;12309;51.450;-2.624;2022-08-25T13:16:55;4.55;;;2.63;;
24147;SDS011;12309;51.450;-2.624;2022-08-25T13:19:23;3.58;;;2.38;;
24147;SDS011;12309;51.450;-2.624;2022-08-25T13:21:50;5.15;;;2.42;;
24147;SDS011;12309;51.450;-2.624;2022-08-25T13:24:29;5.32;;;2.53;;
24147;SDS011;12309;51.450;-2.624;2022-08-25T13:26:59;7.07;;;2.20;;
24147;SDS011;12309;51.450;-2.624;2022-08-25T13:29:28;5.05;;;2.10;;
24147;SDS011;12309;51.450;-2.624;2022-08-25T13:32:00;4.53;;;2.05;;
24147;SDS011;12309;51.450;-2.624;2022-08-25T13:34:33;4.13;;;1.90;;
24147;SDS011;12309;51.450;-2.624;2022-08-25T13:37:05;7.97;;;2.13;;
24147;SDS011;12309;51.450;-2.624;2022-08-25T13:39:50;3.30;;;2.30;;
24147;SDS011;12309;51.450;-2.624;2022-08-25T13:42:41;3.13;;;2.00;;
24147;SDS011;12309;51.450;-2.624;2022-08-25T13:45:11;3.08;;;2.20;;
24147;SDS011;12309;51.450;-2.624;2022-08-25T13:47:41;2.85;;;2.05;;
24147;SDS011;12309;51.450;-2.624;2022-08-25T13:55:27;4.10;;;2.15;;
24147;SDS011;12309;51.450;-2.624;2022-08-25T13:58:17;6.50;;;2.63;;
24147;SDS011;12309;51.450;-2.624;2022-08-25T14:00:46;4.05;;;2.40;;
24147;SDS011;12309;51.450;-2.624;2022-08-25T14:03:30;4.85;;;2.00;;
24147;SDS011;12309;51.450;-2.624;2022-08-25T14:08:46;14.45;;;1.98;;
24147;SDS011;12309;51.450;-2.624;2022-08-25T14:14:02;2.88;;;1.85;;
24147;SDS011;12309;51.450;-2.624;2022-08-25T14:16:28;2.38;;;1.92;;
24147;SDS011;12309;51.450;-2.624;2022-08-25T14:19:00;4.10;;;1.75;;
24147;SDS011;12309;51.450;-2.624;2022-08-25T14:21:28;4.45;;;2.40;;
24147;SDS011;12309;51.450;-2.624;2022-08-25T14:23:55;3.90;;;1.80;;
24147;SDS011;12309;51.450;-2.624;2022-08-25T14:26:22;1.98;;;1.65;;
24147;SDS011;12309;51.450;-2.624;2022-08-25T14:28:48;3.05;;;1.90;;
24147;SDS011;12309;51.450;-2.624;2022-08-25T14:33:55;2.38;;;1.58;;
24147;SDS011;12309;51.450;-2.624;2022-08-25T14:36:25;3.15;;;1.55;;
24147;SDS011;12309;51.450;-2.624;2022-08-25T14:38:53;2.95;;;1.85;;
24147;SDS011;12309;51.450;-2.624;2022-08-25T14:41:19;4.63;;;1.95;;
24147;SDS011;12309;51.450;-2.624;2022-08-25T14:43:46;3.03;;;2.05;;
24147;SDS011;12309;51.450;-2.624;2022-08-25T14:46:14;3.53;;;2.00;;
24147;SDS011;12309;51.450;-2.624;2022-08-25T14:48:50;6.13;;;2.10;;
24147;SDS011;12309;51.450;-2.624;2022-08-25T14:51:20;6.78;;;2.00;;
24147;SDS011;12309;51.450;-2.624;2022-08-25T14:53:47;3.58;;;1.60;;
24147;SDS011;12309;51.450;-2.624;2022-08-25T14:56:13;2.47;;;1.40;;
24147;SDS011;12309;51.450;-2.624;2022-08-25T14:58:40;2.85;;;1.23;;
24147;SDS011;12309;51.450;-2.624;2022-08-25T15:01:07;2.83;;;1.50;;
24147;SDS011;12309;51.450;-2.624;2022-08-25T15:03:40;3.25;;;1.83;;
24147;SDS011;12309;51.450;-2.624;2022-08-25T15:06:13;3.78;;;1.80;;
24147;SDS011;12309;51.450;-2.624;2022-08-25T15:08:40;6.07;;;1.80;;
24147;SDS011;12309;51.450;-2.624;2022-08-25T15:11:25;4.28;;;1.52;;
24147;SDS011;12309;51.450;-2.624;2022-08-25T15:13:51;4.88;;;1.67;;
24147;SDS011;12309;51.450;-2.624;2022-08-25T15:16:21;2.53;;;1.45;;
24147;SDS011;12309;51.450;-2.624;2022-08-25T15:18:53;3.17;;;1.55;;
24147;SDS011;12309;51.450;-2.624;2022-08-25T15:21:18;5.57;;;1.65;;
24147;SDS011;12309;51.450;-2.624;2022-08-25T15:23:44;3.38;;;1.40;;
24147;SDS011;12309;51.450;-2.624;2022-08-25T15:26:13;6.72;;;1.52;;
24147;SDS011;12309;51.450;-2.624;2022-08-25T15:28:41;3.28;;;1.30;;
24147;SDS011;12309;51.450;-2.624;2022-08-25T15:31:09;4.97;;;1.42;;
24147;SDS011;12309;51.450;-2.624;2022-08-25T15:33:36;5.00;;;1.42;;
24147;SDS011;12309;51.450;-2.624;2022-08-25T15:36:03;4.57;;;1.65;;
24147;SDS011;12309;51.450;-2.624;2022-08-25T15:38:40;2.55;;;1.55;;
24147;SDS011;12309;51.450;-2.624;2022-08-25T15:41:10;3.95;;;1.35;;
24147;SDS011;12309;51.450;-2.624;2022-08-25T15:43:37;3.92;;;1.50;;
24147;SDS011;12309;51.450;-2.624;2022-08-25T15:46:03;4.45;;;1.40;;
24147;SDS011;12309;51.450;-2.624;2022-08-25T15:48:31;2.60;;;1.42;;
24147;SDS011;12309;51.450;-2.624;2022-08-25T15:50:58;3.25;;;1.30;;
24147;SDS011;12309;51.450;-2.624;2022-08-25T15:53:25;2.83;;;1.48;;
24147;SDS011;12309;51.450;-2.624;2022-08-25T15:55:52;10.05;;;1.30;;
24147;SDS011;12309;51.450;-2.624;2022-08-25T15:58:19;5.95;;;1.23;;
24147;SDS011;12309;51.450;-2.624;2022-08-25T16:00:45;4.32;;;1.48;;
24147;SDS011;12309;51.450;-2.624;2022-08-25T16:03:11;6.63;;;1.60;;
24147;SDS011;12309;51.450;-2.624;2022-08-25T16:05:38;7.53;;;1.70;;
24147;SDS011;12309;51.450;-2.624;2022-08-25T16:08:05;4.07;;;1.40;;
24147;SDS011;12309;51.450;-2.624;2022-08-25T16:10:34;6.00;;;1.65;;
24147;SDS011;12309;51.450;-2.624;2022-08-25T16:13:01;4.45;;;1.45;;
24147;SDS011;12309;51.450;-2.624;2022-08-25T16:15:27;8.23;;;1.83;;
24147;SDS011;12309;51.450;-2.624;2022-08-25T16:17:53;11.00;;;2.00;;
24147;SDS011;12309;51.450;-2.624;2022-08-25T16:20:19;6.43;;;1.63;;
24147;SDS011;12309;51.450;-2.624;2022-08-25T16:22:45;11.40;;;1.80;;
24147;SDS011;12309;51.450;-2.624;2022-08-25T16:25:11;11.50;;;1.88;;
24147;SDS011;12309;51.450;-2.624;2022-08-25T16:27:38;12.93;;;2.30;;
24147;SDS011;12309;51.450;-2.624;2022-08-25T16:30:04;13.18;;;1.95;;
24147;SDS011;12309;51.450;-2.624;2022-08-25T16:32:34;12.00;;;2.08;;
24147;SDS011;12309;51.450;-2.624;2022-08-25T16:34:59;7.45;;;1.83;;
24147;SDS011;12309;51.450;-2.624;2022-08-25T16:37:25;27.77;;;3.05;;
24147;SDS011;12309;51.450;-2.624;2022-08-25T16:39:51;12.50;;;2.10;;
24147;SDS011;12309;51.450;-2.624;2022-08-25T16:42:18;13.20;;;2.03;;
24147;SDS011;12309;51.450;-2.624;2022-08-25T16:44:44;10.73;;;2.00;;
24147;SDS011;12309;51.450;-2.624;2022-08-25T16:47:10;13.10;;;2.47;;
24147;SDS011;12309;51.450;-2.624;2022-08-25T16:49:38;13.50;;;2.40;;
24147;SDS011;12309;51.450;-2.624;2022-08-25T16:52:04;11.65;;;1.90;;
24147;SDS011;12309;51.450;-2.624;2022-08-25T16:54:50;12.95;;;2.25;;
24147;SDS011;12309;51.450;-2.624;2022-08-25T16:57:34;12.63;;;2.30;;